sensor_id;sensor_type;location;lat;lon;timestamp;temperature;humidity
14099;DHT22;7126;48.458;7.930;2023-12-28T00:01:22;7.40;99.90
14099;DHT22;7126;48.458;7.930;2023-12-28T00:03:48;7.50;99.90
14099;DHT22;7126;48.458;7.930;2023-12-28T00:06:14;7.60;99.90
14099;DHT22;7126;48.458;7.930;2023-12-28T00:08:40;7.60;99.90
14099;DHT22;7126;48.458;7.930;2023-12-28T00:11:05;7.70;99.90
14099;DHT22;7126;48.458;7.930;2023-12-28T00:13:31;7.70;99.90
14099;DHT22;7126;48.458;7.930;2023-12-28T00:15:56;7.70;99.90
14099;DHT22;7126;48.458;7.930;2023-12-28T00:18:22;7.70;99.90
14099;DHT22;7126;48.458;7.930;2023-12-28T00:20:47;7.70;99.90
14099;DHT22;7126;48.458;7.930;2023-12-28T00:23:13;7.80;99.90
14099;DHT22;7126;48.458;7.930;2023-12-28T00:25:38;7.80;99.90
14099;DHT22;7126;48.458;7.930;2023-12-28T00:28:04;7.90;99.90
14099;DHT22;7126;48.458;7.930;2023-12-28T00:30:29;7.90;99.90
14099;DHT22;7126;48.458;7.930;2023-12-28T00:32:55;7.90;99.90
14099;DHT22;7126;48.458;7.930;2023-12-28T00:35:20;7.90;99.90
14099;DHT22;7126;48.458;7.930;2023-12-28T00:37:46;7.90;99.90
14099;DHT22;7126;48.458;7.930;2023-12-28T00:40:12;7.90;99.90
14099;DHT22;7126;48.458;7.930;2023-12-28T00:42:37;8.00;99.90
14099;DHT22;7126;48.458;7.930;2023-12-28T00:45:06;8.00;99.90
14099;DHT22;7126;48.458;7.930;2023-12-28T00:47:32;8.00;99.90
14099;DHT22;7126;48.458;7.930;2023-12-28T00:49:57;7.90;99.90
14099;DHT22;7126;48.458;7.930;2023-12-28T00:52:23;7.90;99.90
14099;DHT22;7126;48.458;7.930;2023-12-28T00:54:48;7.90;99.90
14099;DHT22;7126;48.458;7.930;2023-12-28T00:57:14;7.90;99.90
14099;DHT22;7126;48.458;7.930;2023-12-28T00:59:39;7.90;99.90
14099;DHT22;7126;48.458;7.930;2023-12-28T01:02:05;7.90;99.90
14099;DHT22;7126;48.458;7.930;2023-12-28T01:04:30;7.90;99.90
14099;DHT22;7126;48.458;7.930;2023-12-28T01:06:56;8.00;99.90
14099;DHT22;7126;48.458;7.930;2023-12-28T01:09:21;8.00;99.90
14099;DHT22;7126;48.458;7.930;2023-12-28T01:11:47;8.00;99.90
14099;DHT22;7126;48.458;7.930;2023-12-28T01:14:12;8.00;99.90
14099;DHT22;7126;48.458;7.930;2023-12-28T01:16:38;8.00;99.90
14099;DHT22;7126;48.458;7.930;2023-12-28T01:19:05;8.00;99.90
14099;DHT22;7126;48.458;7.930;2023-12-28T01:21:31;8.00;99.90
14099;DHT22;7126;48.458;7.930;2023-12-28T01:23:56;8.00;99.90
14099;DHT22;7126;48.458;7.930;2023-12-28T01:26:22;8.00;99.90
14099;DHT22;7126;48.458;7.930;2023-12-28T01:28:47;8.00;99.90
14099;DHT22;7126;48.458;7.930;2023-12-28T01:31:13;8.00;99.90
14099;DHT22;7126;48.458;7.930;2023-12-28T01:33:38;8.00;99.90
14099;DHT22;7126;48.458;7.930;2023-12-28T01:36:19;8.10;99.90
14099;DHT22;7126;48.458;7.930;2023-12-28T01:38:45;8.10;99.90
14099;DHT22;7126;48.458;7.930;2023-12-28T01:41:10;8.10;99.90
14099;DHT22;7126;48.458;7.930;2023-12-28T01:43:38;8.10;99.90
14099;DHT22;7126;48.458;7.930;2023-12-28T01:46:05;8.10;99.90
14099;DHT22;7126;48.458;7.930;2023-12-28T01:48:31;8.20;99.90
14099;DHT22;7126;48.458;7.930;2023-12-28T01:50:57;8.30;99.90
14099;DHT22;7126;48.458;7.930;2023-12-28T01:53:23;8.30;99.90
14099;DHT22;7126;48.458;7.930;2023-12-28T01:55:49;8.30;99.90
14099;DHT22;7126;48.458;7.930;2023-12-28T01:58:14;8.30;99.90
14099;DHT22;7126;48.458;7.930;2023-12-28T02:00:40;8.40;99.90
14099;DHT22;7126;48.458;7.930;2023-12-28T02:03:08;8.40;99.90
14099;DHT22;7126;48.458;7.930;2023-12-28T02:05:33;8.50;99.90
14099;DHT22;7126;48.458;7.930;2023-12-28T02:07:59;8.60;99.90
14099;DHT22;7126;48.458;7.930;2023-12-28T02:10:25;8.60;99.90
14099;DHT22;7126;48.458;7.930;2023-12-28T02:12:51;8.60;99.90
14099;DHT22;7126;48.458;7.930;2023-12-28T02:15:18;8.70;99.90
14099;DHT22;7126;48.458;7.930;2023-12-28T02:17:55;8.70;99.90
14099;DHT22;7126;48.458;7.930;2023-12-28T02:20:22;8.80;99.90
14099;DHT22;7126;48.458;7.930;2023-12-28T02:22:48;8.80;99.90
14099;DHT22;7126;48.458;7.930;2023-12-28T02:25:15;8.90;99.90
14099;DHT22;7126;48.458;7.930;2023-12-28T02:27:45;9.00;99.90
14099;DHT22;7126;48.458;7.930;2023-12-28T02:30:18;9.00;99.90
14099;DHT22;7126;48.458;7.930;2023-12-28T02:35:35;9.10;99.90
14099;DHT22;7126;48.458;7.930;2023-12-28T02:38:05;9.20;99.90
14099;DHT22;7126;48.458;7.930;2023-12-28T02:40:38;9.20;99.90
14099;DHT22;7126;48.458;7.930;2023-12-28T02:43:08;9.20;99.90
14099;DHT22;7126;48.458;7.930;2023-12-28T02:45:34;9.30;99.90
14099;DHT22;7126;48.458;7.930;2023-12-28T02:48:00;9.30;99.90
14099;DHT22;7126;48.458;7.930;2023-12-28T02:50:26;9.30;99.90
14099;DHT22;7126;48.458;7.930;2023-12-28T02:52:51;9.30;99.90
14099;DHT22;7126;48.458;7.930;2023-12-28T02:55:17;9.30;99.90
14099;DHT22;7126;48.458;7.930;2023-12-28T02:57:44;9.40;99.90
14099;DHT22;7126;48.458;7.930;2023-12-28T03:00:10;9.40;99.90
14099;DHT22;7126;48.458;7.930;2023-12-28T03:02:36;9.50;99.90
14099;DHT22;7126;48.458;7.930;2023-12-28T03:05:03;9.50;99.90
14099;DHT22;7126;48.458;7.930;2023-12-28T03:07:29;9.50;99.90
14099;DHT22;7126;48.458;7.930;2023-12-28T03:09:55;9.60;99.90
14099;DHT22;7126;48.458;7.930;2023-12-28T03:12:20;9.60;99.90
14099;DHT22;7126;48.458;7.930;2023-12-28T03:14:46;9.70;99.90
14099;DHT22;7126;48.458;7.930;2023-12-28T03:17:11;9.70;99.90
14099;DHT22;7126;48.458;7.930;2023-12-28T03:19:37;9.80;99.90
14099;DHT22;7126;48.458;7.930;2023-12-28T03:22:03;9.80;99.90
14099;DHT22;7126;48.458;7.930;2023-12-28T03:24:28;9.80;99.90
14099;DHT22;7126;48.458;7.930;2023-12-28T03:26:54;9.90;99.90
14099;DHT22;7126;48.458;7.930;2023-12-28T03:29:20;9.90;99.90
14099;DHT22;7126;48.458;7.930;2023-12-28T03:31:45;9.90;99.90
14099;DHT22;7126;48.458;7.930;2023-12-28T03:34:11;9.90;99.90
14099;DHT22;7126;48.458;7.930;2023-12-28T03:36:36;9.90;99.90
14099;DHT22;7126;48.458;7.930;2023-12-28T03:39:02;10.00;99.90
14099;DHT22;7126;48.458;7.930;2023-12-28T03:41:29;10.00;99.90
14099;DHT22;7126;48.458;7.930;2023-12-28T03:43:55;10.00;99.90
14099;DHT22;7126;48.458;7.930;2023-12-28T03:46:20;10.00;99.90
14099;DHT22;7126;48.458;7.930;2023-12-28T03:48:46;10.00;99.90
14099;DHT22;7126;48.458;7.930;2023-12-28T03:51:15;10.00;99.90
14099;DHT22;7126;48.458;7.930;2023-12-28T03:53:41;10.00;99.90
14099;DHT22;7126;48.458;7.930;2023-12-28T03:56:06;10.00;99.90
14099;DHT22;7126;48.458;7.930;2023-12-28T03:58:32;10.00;99.90
14099;DHT22;7126;48.458;7.930;2023-12-28T04:00:58;10.00;99.90
14099;DHT22;7126;48.458;7.930;2023-12-28T04:03:23;10.10;99.90
14099;DHT22;7126;48.458;7.930;2023-12-28T04:05:50;10.10;99.90
14099;DHT22;7126;48.458;7.930;2023-12-28T04:08:15;10.10;99.90
14099;DHT22;7126;48.458;7.930;2023-12-28T04:10:41;10.10;99.90
14099;DHT22;7126;48.458;7.930;2023-12-28T04:13:06;10.10;99.90
14099;DHT22;7126;48.458;7.930;2023-12-28T04:15:32;10.20;99.90
14099;DHT22;7126;48.458;7.930;2023-12-28T04:17:57;10.20;99.90
14099;DHT22;7126;48.458;7.930;2023-12-28T04:20:23;10.20;99.90
14099;DHT22;7126;48.458;7.930;2023-12-28T04:22:49;10.30;99.90
14099;DHT22;7126;48.458;7.930;2023-12-28T04:25:14;10.30;99.90
14099;DHT22;7126;48.458;7.930;2023-12-28T04:27:42;10.30;99.90
14099;DHT22;7126;48.458;7.930;2023-12-28T04:30:07;10.30;99.90
14099;DHT22;7126;48.458;7.930;2023-12-28T04:32:33;10.30;99.90
14099;DHT22;7126;48.458;7.930;2023-12-28T04:34:59;10.30;99.90
14099;DHT22;7126;48.458;7.930;2023-12-28T04:37:24;10.30;99.90
14099;DHT22;7126;48.458;7.930;2023-12-28T04:39:52;10.30;99.90
14099;DHT22;7126;48.458;7.930;2023-12-28T04:42:18;10.30;99.90
14099;DHT22;7126;48.458;7.930;2023-12-28T04:44:44;10.20;99.90
14099;DHT22;7126;48.458;7.930;2023-12-28T04:47:09;10.20;99.90
14099;DHT22;7126;48.458;7.930;2023-12-28T04:49:35;10.20;99.90
14099;DHT22;7126;48.458;7.930;2023-12-28T04:52:00;10.20;99.90
14099;DHT22;7126;48.458;7.930;2023-12-28T04:54:26;10.20;99.90
14099;DHT22;7126;48.458;7.930;2023-12-28T04:56:51;10.20;99.90
14099;DHT22;7126;48.458;7.930;2023-12-28T04:59:17;10.20;99.90
14099;DHT22;7126;48.458;7.930;2023-12-28T05:01:43;10.20;99.90
14099;DHT22;7126;48.458;7.930;2023-12-28T05:04:08;10.20;99.90
14099;DHT22;7126;48.458;7.930;2023-12-28T05:06:34;10.20;99.90
14099;DHT22;7126;48.458;7.930;2023-12-28T05:09:00;10.20;99.90
14099;DHT22;7126;48.458;7.930;2023-12-28T05:11:25;10.20;99.90
14099;DHT22;7126;48.458;7.930;2023-12-28T05:13:51;10.20;99.90
14099;DHT22;7126;48.458;7.930;2023-12-28T05:16:16;10.20;99.90
14099;DHT22;7126;48.458;7.930;2023-12-28T05:18:42;10.20;99.90
14099;DHT22;7126;48.458;7.930;2023-12-28T05:21:07;10.20;99.90
14099;DHT22;7126;48.458;7.930;2023-12-28T05:23:33;10.20;99.90
14099;DHT22;7126;48.458;7.930;2023-12-28T05:25:58;10.20;99.90
14099;DHT22;7126;48.458;7.930;2023-12-28T05:28:24;10.20;99.90
14099;DHT22;7126;48.458;7.930;2023-12-28T05:30:49;10.20;99.90
14099;DHT22;7126;48.458;7.930;2023-12-28T05:33:15;10.20;99.90
14099;DHT22;7126;48.458;7.930;2023-12-28T05:35:40;10.20;99.90
14099;DHT22;7126;48.458;7.930;2023-12-28T05:38:06;10.20;99.90
14099;DHT22;7126;48.458;7.930;2023-12-28T05:40:31;10.20;99.90
14099;DHT22;7126;48.458;7.930;2023-12-28T05:42:57;10.20;99.90
14099;DHT22;7126;48.458;7.930;2023-12-28T05:45:22;10.20;99.90
14099;DHT22;7126;48.458;7.930;2023-12-28T05:47:48;10.20;99.90
14099;DHT22;7126;48.458;7.930;2023-12-28T05:50:13;10.20;99.90
14099;DHT22;7126;48.458;7.930;2023-12-28T05:52:39;10.20;99.90
14099;DHT22;7126;48.458;7.930;2023-12-28T05:55:05;10.20;99.90
14099;DHT22;7126;48.458;7.930;2023-12-28T05:57:30;10.20;99.90
14099;DHT22;7126;48.458;7.930;2023-12-28T05:59:57;10.20;99.90
14099;DHT22;7126;48.458;7.930;2023-12-28T06:02:22;10.30;99.90
14099;DHT22;7126;48.458;7.930;2023-12-28T06:04:48;10.30;99.90
14099;DHT22;7126;48.458;7.930;2023-12-28T06:07:14;10.30;99.90
14099;DHT22;7126;48.458;7.930;2023-12-28T06:09:39;10.30;99.90
14099;DHT22;7126;48.458;7.930;2023-12-28T06:12:05;10.40;99.90
14099;DHT22;7126;48.458;7.930;2023-12-28T06:14:31;10.40;99.90
14099;DHT22;7126;48.458;7.930;2023-12-28T06:16:57;10.50;99.90
14099;DHT22;7126;48.458;7.930;2023-12-28T06:19:22;10.40;99.90
14099;DHT22;7126;48.458;7.930;2023-12-28T06:21:48;10.50;99.90
14099;DHT22;7126;48.458;7.930;2023-12-28T06:24:14;10.50;99.90
14099;DHT22;7126;48.458;7.930;2023-12-28T06:26:43;10.50;99.90
14099;DHT22;7126;48.458;7.930;2023-12-28T06:29:09;10.60;99.90
14099;DHT22;7126;48.458;7.930;2023-12-28T06:31:36;10.60;99.90
14099;DHT22;7126;48.458;7.930;2023-12-28T06:34:05;10.70;99.90
14099;DHT22;7126;48.458;7.930;2023-12-28T06:36:31;10.80;99.90
14099;DHT22;7126;48.458;7.930;2023-12-28T06:38:58;10.80;99.90
14099;DHT22;7126;48.458;7.930;2023-12-28T06:41:24;10.90;99.90
14099;DHT22;7126;48.458;7.930;2023-12-28T06:43:50;10.90;99.90
14099;DHT22;7126;48.458;7.930;2023-12-28T06:46:16;10.90;99.90
14099;DHT22;7126;48.458;7.930;2023-12-28T06:48:42;10.90;99.90
14099;DHT22;7126;48.458;7.930;2023-12-28T06:51:09;11.00;99.90
14099;DHT22;7126;48.458;7.930;2023-12-28T06:53:34;10.90;99.90
14099;DHT22;7126;48.458;7.930;2023-12-28T06:56:00;10.90;99.90
14099;DHT22;7126;48.458;7.930;2023-12-28T06:58:25;10.90;99.90
14099;DHT22;7126;48.458;7.930;2023-12-28T07:00:51;10.90;99.90
14099;DHT22;7126;48.458;7.930;2023-12-28T07:03:16;10.80;99.90
14099;DHT22;7126;48.458;7.930;2023-12-28T07:05:42;10.80;99.90
14099;DHT22;7126;48.458;7.930;2023-12-28T07:08:08;10.80;99.90
14099;DHT22;7126;48.458;7.930;2023-12-28T07:10:34;10.80;99.90
14099;DHT22;7126;48.458;7.930;2023-12-28T07:12:59;10.80;99.90
14099;DHT22;7126;48.458;7.930;2023-12-28T07:15:25;10.80;99.90
14099;DHT22;7126;48.458;7.930;2023-12-28T07:17:50;10.80;99.90
14099;DHT22;7126;48.458;7.930;2023-12-28T07:20:16;10.90;99.90
14099;DHT22;7126;48.458;7.930;2023-12-28T07:22:41;10.90;99.90
14099;DHT22;7126;48.458;7.930;2023-12-28T07:25:07;10.90;99.90
14099;DHT22;7126;48.458;7.930;2023-12-28T07:27:34;10.90;99.90
14099;DHT22;7126;48.458;7.930;2023-12-28T07:30:00;10.90;99.90
14099;DHT22;7126;48.458;7.930;2023-12-28T07:32:26;10.90;99.90
14099;DHT22;7126;48.458;7.930;2023-12-28T07:34:55;10.90;99.90
14099;DHT22;7126;48.458;7.930;2023-12-28T07:37:20;10.80;99.90
14099;DHT22;7126;48.458;7.930;2023-12-28T07:39:47;10.80;99.90
14099;DHT22;7126;48.458;7.930;2023-12-28T07:42:12;10.80;99.90
14099;DHT22;7126;48.458;7.930;2023-12-28T07:44:38;10.80;99.90
14099;DHT22;7126;48.458;7.930;2023-12-28T07:47:04;10.70;99.90
14099;DHT22;7126;48.458;7.930;2023-12-28T07:49:31;10.70;99.90
14099;DHT22;7126;48.458;7.930;2023-12-28T07:51:56;10.70;99.90
14099;DHT22;7126;48.458;7.930;2023-12-28T07:54:22;10.70;99.90
14099;DHT22;7126;48.458;7.930;2023-12-28T07:56:47;10.70;99.90
14099;DHT22;7126;48.458;7.930;2023-12-28T07:59:13;10.70;99.90
14099;DHT22;7126;48.458;7.930;2023-12-28T08:01:38;10.70;99.90
14099;DHT22;7126;48.458;7.930;2023-12-28T08:04:04;10.70;99.90
14099;DHT22;7126;48.458;7.930;2023-12-28T08:06:30;10.70;99.90
14099;DHT22;7126;48.458;7.930;2023-12-28T08:08:59;10.60;99.90
14099;DHT22;7126;48.458;7.930;2023-12-28T08:11:26;10.60;99.90
14099;DHT22;7126;48.458;7.930;2023-12-28T08:13:52;10.60;99.90
14099;DHT22;7126;48.458;7.930;2023-12-28T08:16:17;10.70;99.90
14099;DHT22;7126;48.458;7.930;2023-12-28T08:18:43;10.70;99.90
14099;DHT22;7126;48.458;7.930;2023-12-28T08:21:08;10.70;99.90
14099;DHT22;7126;48.458;7.930;2023-12-28T08:23:34;10.70;99.90
14099;DHT22;7126;48.458;7.930;2023-12-28T08:25:59;10.70;99.90
14099;DHT22;7126;48.458;7.930;2023-12-28T08:28:25;10.70;99.90
14099;DHT22;7126;48.458;7.930;2023-12-28T08:30:50;10.60;99.90
14099;DHT22;7126;48.458;7.930;2023-12-28T08:33:16;10.50;99.90
14099;DHT22;7126;48.458;7.930;2023-12-28T08:35:42;10.40;99.90
14099;DHT22;7126;48.458;7.930;2023-12-28T08:38:07;10.40;99.90
14099;DHT22;7126;48.458;7.930;2023-12-28T08:40:33;10.40;99.90
14099;DHT22;7126;48.458;7.930;2023-12-28T08:42:59;10.40;99.90
14099;DHT22;7126;48.458;7.930;2023-12-28T08:45:24;10.40;99.90
14099;DHT22;7126;48.458;7.930;2023-12-28T08:47:50;10.40;99.90
14099;DHT22;7126;48.458;7.930;2023-12-28T08:50:15;10.40;99.90
14099;DHT22;7126;48.458;7.930;2023-12-28T08:52:41;10.40;99.90
14099;DHT22;7126;48.458;7.930;2023-12-28T08:55:06;10.40;99.90
14099;DHT22;7126;48.458;7.930;2023-12-28T08:57:32;10.40;99.90
14099;DHT22;7126;48.458;7.930;2023-12-28T08:59:58;10.40;99.90
14099;DHT22;7126;48.458;7.930;2023-12-28T09:02:27;10.40;99.90
14099;DHT22;7126;48.458;7.930;2023-12-28T09:04:53;10.50;99.90
14099;DHT22;7126;48.458;7.930;2023-12-28T09:07:19;10.50;99.90
14099;DHT22;7126;48.458;7.930;2023-12-28T09:09:45;10.50;99.90
14099;DHT22;7126;48.458;7.930;2023-12-28T09:12:11;10.60;99.90
14099;DHT22;7126;48.458;7.930;2023-12-28T09:14:37;10.60;99.90
14099;DHT22;7126;48.458;7.930;2023-12-28T09:17:02;10.60;99.90
14099;DHT22;7126;48.458;7.930;2023-12-28T09:19:28;10.70;99.90
14099;DHT22;7126;48.458;7.930;2023-12-28T09:21:54;10.70;99.90
14099;DHT22;7126;48.458;7.930;2023-12-28T09:24:19;10.70;99.90
14099;DHT22;7126;48.458;7.930;2023-12-28T09:26:45;10.70;99.90
14099;DHT22;7126;48.458;7.930;2023-12-28T09:29:10;10.70;99.90
14099;DHT22;7126;48.458;7.930;2023-12-28T09:31:37;10.70;99.90
14099;DHT22;7126;48.458;7.930;2023-12-28T09:34:02;10.80;99.90
14099;DHT22;7126;48.458;7.930;2023-12-28T09:36:33;10.80;99.90
14099;DHT22;7126;48.458;7.930;2023-12-28T09:38:58;10.70;99.90
14099;DHT22;7126;48.458;7.930;2023-12-28T09:41:26;10.70;99.90
14099;DHT22;7126;48.458;7.930;2023-12-28T09:46:31;10.80;99.90
14099;DHT22;7126;48.458;7.930;2023-12-28T09:48:58;10.70;99.90
14099;DHT22;7126;48.458;7.930;2023-12-28T09:51:25;10.70;99.90
14099;DHT22;7126;48.458;7.930;2023-12-28T09:53:51;10.70;99.90
14099;DHT22;7126;48.458;7.930;2023-12-28T09:56:16;10.70;99.90
14099;DHT22;7126;48.458;7.930;2023-12-28T09:58:42;10.70;99.90
14099;DHT22;7126;48.458;7.930;2023-12-28T10:01:10;10.70;99.90
14099;DHT22;7126;48.458;7.930;2023-12-28T10:03:36;10.80;99.90
14099;DHT22;7126;48.458;7.930;2023-12-28T10:06:01;10.80;99.90
14099;DHT22;7126;48.458;7.930;2023-12-28T10:08:27;10.80;99.90
14099;DHT22;7126;48.458;7.930;2023-12-28T10:10:52;10.80;99.90
14099;DHT22;7126;48.458;7.930;2023-12-28T10:13:20;10.80;99.90
14099;DHT22;7126;48.458;7.930;2023-12-28T10:15:46;10.80;99.90
14099;DHT22;7126;48.458;7.930;2023-12-28T10:18:12;10.80;99.90
14099;DHT22;7126;48.458;7.930;2023-12-28T10:20:38;10.80;99.90
14099;DHT22;7126;48.458;7.930;2023-12-28T10:23:04;10.70;99.90
14099;DHT22;7126;48.458;7.930;2023-12-28T10:25:31;10.70;99.90
14099;DHT22;7126;48.458;7.930;2023-12-28T10:27:57;10.80;99.90
14099;DHT22;7126;48.458;7.930;2023-12-28T10:30:23;10.80;99.90
14099;DHT22;7126;48.458;7.930;2023-12-28T10:32:49;10.80;99.90
14099;DHT22;7126;48.458;7.930;2023-12-28T10:35:15;10.80;99.90
14099;DHT22;7126;48.458;7.930;2023-12-28T10:37:44;10.80;99.90
14099;DHT22;7126;48.458;7.930;2023-12-28T10:40:13;10.80;99.90
14099;DHT22;7126;48.458;7.930;2023-12-28T10:42:59;10.80;99.90
14099;DHT22;7126;48.458;7.930;2023-12-28T10:45:33;10.80;99.90
14099;DHT22;7126;48.458;7.930;2023-12-28T10:48:16;10.90;99.90
14099;DHT22;7126;48.458;7.930;2023-12-28T10:50:48;10.90;99.90
14099;DHT22;7126;48.458;7.930;2023-12-28T10:56:32;10.90;99.90
14099;DHT22;7126;48.458;7.930;2023-12-28T11:01:32;10.90;99.90
14099;DHT22;7126;48.458;7.930;2023-12-28T11:06:51;10.90;99.90
14099;DHT22;7126;48.458;7.930;2023-12-28T11:09:18;10.80;99.90
14099;DHT22;7126;48.458;7.930;2023-12-28T11:11:46;10.90;99.90
14099;DHT22;7126;48.458;7.930;2023-12-28T11:14:13;10.90;99.90
14099;DHT22;7126;48.458;7.930;2023-12-28T11:16:40;10.80;99.90
14099;DHT22;7126;48.458;7.930;2023-12-28T11:19:08;10.80;99.90
14099;DHT22;7126;48.458;7.930;2023-12-28T11:21:34;10.80;99.90
14099;DHT22;7126;48.458;7.930;2023-12-28T11:24:00;10.80;99.90
14099;DHT22;7126;48.458;7.930;2023-12-28T11:26:26;10.80;99.90
14099;DHT22;7126;48.458;7.930;2023-12-28T11:29:12;10.80;99.90
14099;DHT22;7126;48.458;7.930;2023-12-28T11:31:37;10.80;99.90
14099;DHT22;7126;48.458;7.930;2023-12-28T11:34:06;10.70;99.90
14099;DHT22;7126;48.458;7.930;2023-12-28T11:36:35;10.70;99.90
14099;DHT22;7126;48.458;7.930;2023-12-28T11:39:05;10.70;99.90
14099;DHT22;7126;48.458;7.930;2023-12-28T11:41:32;10.60;99.90
14099;DHT22;7126;48.458;7.930;2023-12-28T11:44:05;10.60;99.90
14099;DHT22;7126;48.458;7.930;2023-12-28T11:46:35;10.60;99.90
14099;DHT22;7126;48.458;7.930;2023-12-28T11:49:08;10.60;99.90
14099;DHT22;7126;48.458;7.930;2023-12-28T11:51:36;10.60;99.90
14099;DHT22;7126;48.458;7.930;2023-12-28T11:54:03;10.60;99.90
14099;DHT22;7126;48.458;7.930;2023-12-28T11:56:29;10.50;99.90
14099;DHT22;7126;48.458;7.930;2023-12-28T11:58:55;10.50;99.90
14099;DHT22;7126;48.458;7.930;2023-12-28T12:01:20;10.50;99.90
14099;DHT22;7126;48.458;7.930;2023-12-28T12:03:46;10.50;99.90
14099;DHT22;7126;48.458;7.930;2023-12-28T12:06:11;10.50;99.90
14099;DHT22;7126;48.458;7.930;2023-12-28T12:08:37;10.50;99.90
14099;DHT22;7126;48.458;7.930;2023-12-28T12:11:05;10.50;99.90
14099;DHT22;7126;48.458;7.930;2023-12-28T12:13:31;10.50;99.90
14099;DHT22;7126;48.458;7.930;2023-12-28T12:15:57;10.50;99.90
14099;DHT22;7126;48.458;7.930;2023-12-28T12:18:23;10.50;99.90
14099;DHT22;7126;48.458;7.930;2023-12-28T12:20:49;10.50;99.90
14099;DHT22;7126;48.458;7.930;2023-12-28T12:23:15;10.50;99.90
14099;DHT22;7126;48.458;7.930;2023-12-28T12:25:41;10.60;99.90
14099;DHT22;7126;48.458;7.930;2023-12-28T12:28:07;10.60;99.90
14099;DHT22;7126;48.458;7.930;2023-12-28T12:30:32;10.60;99.90
14099;DHT22;7126;48.458;7.930;2023-12-28T12:32:59;10.50;99.90
14099;DHT22;7126;48.458;7.930;2023-12-28T12:35:24;10.50;99.90
14099;DHT22;7126;48.458;7.930;2023-12-28T12:37:50;10.50;99.90
14099;DHT22;7126;48.458;7.930;2023-12-28T12:40:17;10.50;99.90
14099;DHT22;7126;48.458;7.930;2023-12-28T12:42:52;10.50;99.90
14099;DHT22;7126;48.458;7.930;2023-12-28T12:45:19;10.50;99.90
14099;DHT22;7126;48.458;7.930;2023-12-28T12:47:46;10.40;99.90
14099;DHT22;7126;48.458;7.930;2023-12-28T12:50:11;10.50;99.90
14099;DHT22;7126;48.458;7.930;2023-12-28T12:52:38;10.50;99.90
14099;DHT22;7126;48.458;7.930;2023-12-28T12:55:04;10.50;99.90
14099;DHT22;7126;48.458;7.930;2023-12-28T12:57:30;10.50;99.90
14099;DHT22;7126;48.458;7.930;2023-12-28T12:59:56;10.40;99.90
14099;DHT22;7126;48.458;7.930;2023-12-28T13:02:25;10.40;99.90
14099;DHT22;7126;48.458;7.930;2023-12-28T13:04:53;10.40;99.90
14099;DHT22;7126;48.458;7.930;2023-12-28T13:07:19;10.40;99.90
14099;DHT22;7126;48.458;7.930;2023-12-28T13:09:44;10.40;99.90
14099;DHT22;7126;48.458;7.930;2023-12-28T13:12:10;10.40;99.90
14099;DHT22;7126;48.458;7.930;2023-12-28T13:14:36;10.40;99.90
14099;DHT22;7126;48.458;7.930;2023-12-28T13:17:01;10.40;99.90
14099;DHT22;7126;48.458;7.930;2023-12-28T13:19:27;10.40;99.90
14099;DHT22;7126;48.458;7.930;2023-12-28T13:21:52;10.40;99.90
14099;DHT22;7126;48.458;7.930;2023-12-28T13:24:18;10.40;99.90
14099;DHT22;7126;48.458;7.930;2023-12-28T13:26:44;10.30;99.90
14099;DHT22;7126;48.458;7.930;2023-12-28T13:29:09;10.30;99.90
14099;DHT22;7126;48.458;7.930;2023-12-28T13:31:35;10.30;99.90
14099;DHT22;7126;48.458;7.930;2023-12-28T13:34:00;10.40;99.90
14099;DHT22;7126;48.458;7.930;2023-12-28T13:36:26;10.30;99.90
14099;DHT22;7126;48.458;7.930;2023-12-28T13:38:53;10.30;99.90
14099;DHT22;7126;48.458;7.930;2023-12-28T13:41:19;10.30;99.90
14099;DHT22;7126;48.458;7.930;2023-12-28T13:43:44;10.20;99.90
14099;DHT22;7126;48.458;7.930;2023-12-28T13:46:10;10.20;99.90
14099;DHT22;7126;48.458;7.930;2023-12-28T13:48:35;10.20;99.90
14099;DHT22;7126;48.458;7.930;2023-12-28T13:51:04;10.20;99.90
14099;DHT22;7126;48.458;7.930;2023-12-28T13:53:30;10.20;99.90
14099;DHT22;7126;48.458;7.930;2023-12-28T13:55:56;10.10;99.90
14099;DHT22;7126;48.458;7.930;2023-12-28T13:58:22;10.10;99.90
14099;DHT22;7126;48.458;7.930;2023-12-28T14:00:47;10.10;99.90
14099;DHT22;7126;48.458;7.930;2023-12-28T14:03:13;10.00;99.90
14099;DHT22;7126;48.458;7.930;2023-12-28T14:05:39;10.00;99.90
14099;DHT22;7126;48.458;7.930;2023-12-28T14:08:05;10.10;99.90
14099;DHT22;7126;48.458;7.930;2023-12-28T14:10:30;10.10;99.90
14099;DHT22;7126;48.458;7.930;2023-12-28T14:12:56;10.10;99.90
14099;DHT22;7126;48.458;7.930;2023-12-28T14:15:21;10.10;99.90
14099;DHT22;7126;48.458;7.930;2023-12-28T14:17:48;10.20;99.90
14099;DHT22;7126;48.458;7.930;2023-12-28T14:20:13;10.20;99.90
14099;DHT22;7126;48.458;7.930;2023-12-28T14:22:39;10.20;99.90
14099;DHT22;7126;48.458;7.930;2023-12-28T14:25:05;10.20;99.90
14099;DHT22;7126;48.458;7.930;2023-12-28T14:27:31;10.20;99.90
14099;DHT22;7126;48.458;7.930;2023-12-28T14:29:57;10.20;99.90
14099;DHT22;7126;48.458;7.930;2023-12-28T14:32:23;10.30;99.90
14099;DHT22;7126;48.458;7.930;2023-12-28T14:34:49;10.30;99.90
14099;DHT22;7126;48.458;7.930;2023-12-28T14:37:14;10.40;99.90
14099;DHT22;7126;48.458;7.930;2023-12-28T14:39:40;10.40;99.90
14099;DHT22;7126;48.458;7.930;2023-12-28T14:42:05;10.40;99.90
14099;DHT22;7126;48.458;7.930;2023-12-28T14:44:31;10.50;99.90
14099;DHT22;7126;48.458;7.930;2023-12-28T14:46:57;10.50;99.90
14099;DHT22;7126;48.458;7.930;2023-12-28T14:49:22;10.50;99.90
14099;DHT22;7126;48.458;7.930;2023-12-28T14:51:48;10.50;99.90
14099;DHT22;7126;48.458;7.930;2023-12-28T14:54:14;10.50;99.90
14099;DHT22;7126;48.458;7.930;2023-12-28T14:56:39;10.50;99.90
14099;DHT22;7126;48.458;7.930;2023-12-28T14:59:05;10.50;99.90
14099;DHT22;7126;48.458;7.930;2023-12-28T15:01:30;10.50;99.90
14099;DHT22;7126;48.458;7.930;2023-12-28T15:03:56;10.50;99.90
14099;DHT22;7126;48.458;7.930;2023-12-28T15:06:21;10.50;99.90
14099;DHT22;7126;48.458;7.930;2023-12-28T15:08:47;10.50;99.90
14099;DHT22;7126;48.458;7.930;2023-12-28T15:11:12;10.50;99.90
14099;DHT22;7126;48.458;7.930;2023-12-28T15:13:38;10.50;99.90
14099;DHT22;7126;48.458;7.930;2023-12-28T15:16:04;10.50;99.90
14099;DHT22;7126;48.458;7.930;2023-12-28T15:18:31;10.50;99.90
14099;DHT22;7126;48.458;7.930;2023-12-28T15:20:57;10.50;99.90
14099;DHT22;7126;48.458;7.930;2023-12-28T15:23:22;10.50;99.90
14099;DHT22;7126;48.458;7.930;2023-12-28T15:25:48;10.50;99.90
14099;DHT22;7126;48.458;7.930;2023-12-28T15:28:15;10.50;99.90
14099;DHT22;7126;48.458;7.930;2023-12-28T15:30:40;10.50;99.90
14099;DHT22;7126;48.458;7.930;2023-12-28T15:33:06;10.50;99.90
14099;DHT22;7126;48.458;7.930;2023-12-28T15:35:31;10.50;99.90
14099;DHT22;7126;48.458;7.930;2023-12-28T15:37:57;10.50;99.90
14099;DHT22;7126;48.458;7.930;2023-12-28T15:40:22;10.50;99.90
14099;DHT22;7126;48.458;7.930;2023-12-28T15:42:50;10.50;99.90
14099;DHT22;7126;48.458;7.930;2023-12-28T15:45:15;10.50;99.90
14099;DHT22;7126;48.458;7.930;2023-12-28T15:47:41;10.60;99.90
14099;DHT22;7126;48.458;7.930;2023-12-28T15:50:07;10.60;99.90
14099;DHT22;7126;48.458;7.930;2023-12-28T15:52:32;10.60;99.90
14099;DHT22;7126;48.458;7.930;2023-12-28T15:54:58;10.50;99.90
14099;DHT22;7126;48.458;7.930;2023-12-28T15:57:23;10.50;99.90